Time;durP1;ratioP1;P1;durP2;ratioP2;P2;SDS_P1;SDS_P2;PMS_P1;PMS_P2;Temp;Humidity;BMP_temperature;BMP_pressure;BME280_temperature;BME280_humidity;BME280_pressure;Samples;Min_cycle;Max_cycle;Signal;HPM_P1;HPM_P2
2020/12/19 00:01:37;;;;;;;36.23;17.48;;;;;;;0.75;99.51;100457.14;1808475;79;20917;-81
2020/12/19 00:04:05;;;;;;;35.65;17.37;;;;;;;0.77;99.61;100456.38;1808454;79;21032;-79
2020/12/19 00:06:33;;;;;;;37.08;17.37;;;;;;;0.78;99.52;100466.14;1808505;79;21083;-79
2020/12/19 00:09:00;;;;;;;39.33;18.45;;;;;;;0.76;99.42;100466.89;1808440;79;21383;-79
2020/12/19 00:11:28;;;;;;;38.30;18.25;;;;;;;0.73;99.39;100460.07;1808312;79;21036;-80
2020/12/19 00:13:55;;;;;;;37.30;18.02;;;;;;;0.73;99.42;100468.18;1808556;79;21456;-80
2020/12/19 00:16:29;;;;;;;41.58;18.27;;;;;;;0.72;99.44;100465.70;1808454;79;21079;-79
2020/12/19 00:18:53;;;;;;;36.80;18.05;;;;;;;0.71;99.51;100468.11;1808100;79;21046;-79
2020/12/19 00:21:21;;;;;;;36.83;16.73;;;;;;;0.71;99.56;100468.94;1808487;79;21201;-79
2020/12/19 00:23:48;;;;;;;38.48;18.25;;;;;;;0.74;99.61;100463.59;1808415;79;20909;-83
2020/12/19 00:26:16;;;;;;;40.20;17.20;;;;;;;0.74;99.59;100469.00;1808471;79;20898;-84
2020/12/19 00:28:43;;;;;;;41.95;18.52;;;;;;;0.75;99.66;100472.00;1808356;79;21111;-83
2020/12/19 00:31:11;;;;;;;40.92;18.48;;;;;;;0.75;99.61;100476.88;1808471;79;21099;-82
2020/12/19 00:33:38;;;;;;;39.63;18.05;;;;;;;0.72;99.53;100475.16;1808477;79;21449;-82
2020/12/19 00:36:07;;;;;;;30.62;13.70;;;;;;;0.71;99.57;100472.98;1806886;79;21043;-82
2020/12/19 00:38:34;;;;;;;43.48;18.52;;;;;;;0.74;99.71;100475.23;1771419;81;20922;-83
2020/12/19 00:41:02;;;;;;;39.60;17.57;;;;;;;0.76;99.77;100473.66;1771350;81;21020;-82
2020/12/19 00:43:29;;;;;;;41.42;18.23;;;;;;;0.74;99.69;100482.52;1771372;81;21159;-80
2020/12/19 00:45:57;;;;;;;43.38;19.00;;;;;;;0.73;99.71;100482.22;1771411;81;21393;-81
2020/12/19 00:48:24;;;;;;;43.13;18.23;;;;;;;0.71;99.70;100483.80;1771353;81;21084;-82
2020/12/19 00:50:52;;;;;;;47.13;19.23;;;;;;;0.70;99.74;100475.92;1771254;81;21120;-82
2020/12/19 00:53:19;;;;;;;36.25;15.53;;;;;;;0.69;99.78;100476.44;1771440;81;21635;-82
2020/12/19 00:55:47;;;;;;;39.95;16.85;;;;;;;0.71;99.90;100474.86;1771451;81;21081;-81
2020/12/19 00:58:14;;;;;;;41.02;18.50;;;;;;;0.69;99.88;100475.09;1771460;81;22123;-82
2020/12/19 01:00:42;;;;;;;43.52;18.55;;;;;;;0.70;100.00;100472.69;1771334;81;21152;-81
2020/12/19 01:03:10;;;;;;;45.38;18.80;;;;;;;0.74;100.00;100472.53;1771468;81;21579;-81
2020/12/19 01:05:38;;;;;;;45.38;18.60;;;;;;;0.76;100.00;100468.25;1771318;81;21235;-82
2020/12/19 01:08:06;;;;;;;46.77;18.37;;;;;;;0.76;100.00;100470.95;1771365;81;20933;-82
2020/12/19 01:10:33;;;;;;;46.00;18.10;;;;;;;0.75;100.00;100466.07;1771340;81;22817;-81
2020/12/19 01:13:02;;;;;;;42.48;17.50;;;;;;;0.77;100.00;100472.60;1771343;81;20937;-82
2020/12/19 01:15:29;;;;;;;49.35;20.40;;;;;;;0.77;100.00;100468.55;1771372;81;20941;-79
2020/12/19 01:17:57;;;;;;;51.75;20.85;;;;;;;0.75;100.00;100466.59;1771345;81;21107;-77
2020/12/19 01:20:26;;;;;;;45.88;19.67;;;;;;;0.75;100.00;100466.59;1771341;81;21088;-77
2020/12/19 01:22:54;;;;;;;48.48;19.70;;;;;;;0.73;100.00;100466.00;1771343;81;21215;-77
2020/12/19 01:25:21;;;;;;;45.67;18.60;;;;;;;0.72;100.00;100463.83;1771296;81;21013;-78
2020/12/19 01:27:49;;;;;;;50.95;21.48;;;;;;;0.71;100.00;100464.88;1771248;81;21084;-80
2020/12/19 01:30:16;;;;;;;51.95;21.02;;;;;;;0.72;100.00;100469.23;1771135;81;21060;-82
2020/12/19 01:32:44;;;;;;;51.65;20.43;;;;;;;0.75;100.00;100465.25;1771391;81;21084;-81
2020/12/19 01:35:14;;;;;;;50.50;19.45;;;;;;;0.77;100.00;100466.67;1767676;81;21167;-82
2020/12/19 01:37:41;;;;;;;49.20;20.88;;;;;;;0.77;100.00;100470.72;1773881;80;21003;-81
2020/12/19 01:40:08;;;;;;;49.20;20.90;;;;;;;0.74;100.00;100474.41;1775738;80;21481;-81
2020/12/19 01:42:36;;;;;;;47.67;19.85;;;;;;;0.72;100.00;100473.81;1775719;80;21061;-81
2020/12/19 01:45:04;;;;;;;47.17;20.35;;;;;;;0.72;100.00;100476.52;1775761;80;21129;-85
2020/12/19 01:47:33;;;;;;;56.98;20.45;;;;;;;0.73;100.00;100471.41;1775798;80;22039;-79
2020/12/19 01:50:07;;;;;;;51.42;19.70;;;;;;;0.73;100.00;100474.11;1747770;80;21026;-80
2020/12/19 01:52:35;;;;;;;46.75;19.82;;;;;;;0.72;100.00;100474.64;1775838;80;20958;-79
2020/12/19 01:55:04;;;;;;;51.55;20.23;;;;;;;0.71;100.00;100482.45;1775690;80;21141;-80
2020/12/19 01:57:32;;;;;;;49.73;19.87;;;;;;;0.72;100.00;100479.22;1775744;80;21112;-78
2020/12/19 01:59:59;;;;;;;48.20;20.45;;;;;;;0.73;100.00;100480.87;1775839;80;21502;-83
2020/12/19 02:02:27;;;;;;;49.88;20.20;;;;;;;0.71;100.00;100484.33;1775664;80;20958;-79
2020/12/19 02:04:55;;;;;;;50.43;19.70;;;;;;;0.70;100.00;100484.03;1747108;80;21073;-84
2020/12/19 02:07:23;;;;;;;51.05;19.30;;;;;;;0.73;100.00;100480.34;1775736;80;21137;-85
2020/12/19 02:09:51;;;;;;;51.33;20.50;;;;;;;0.74;100.00;100479.28;1775874;80;21617;-80
2020/12/19 02:12:20;;;;;;;46.63;17.87;;;;;;;0.75;100.00;100476.05;1775172;80;22737;-74
2020/12/19 02:14:48;;;;;;;49.30;18.80;;;;;;;0.75;100.00;100478.77;1775723;80;21132;-89
2020/12/19 02:17:16;;;;;;;48.78;19.40;;;;;;;0.75;100.00;100480.11;1775783;80;20935;-79
2020/12/19 02:19:44;;;;;;;47.05;18.65;;;;;;;0.72;100.00;100477.87;1775752;80;20958;-81
2020/12/19 02:22:12;;;;;;;50.05;18.67;;;;;;;0.70;100.00;100483.50;1775841;80;21018;-81
2020/12/19 02:24:40;;;;;;;54.58;21.20;;;;;;;0.67;100.00;100477.20;1775648;80;21381;-82
2020/12/19 02:27:07;;;;;;;50.03;19.32;;;;;;;0.65;100.00;100480.66;1775762;80;20954;-72
2020/12/19 02:29:35;;;;;;;52.93;19.95;;;;;;;0.65;100.00;100473.38;1775756;80;21086;-81
2020/12/19 02:32:03;;;;;;;52.35;19.30;;;;;;;0.63;100.00;100478.70;1775811;80;21580;-73
2020/12/19 02:34:31;;;;;;;56.13;21.30;;;;;;;0.62;100.00;100475.17;1775805;80;21041;-82
2020/12/19 02:36:59;;;;;;;59.50;19.95;;;;;;;0.60;100.00;100473.23;1774934;80;22359;-81
2020/12/19 02:39:26;;;;;;;51.55;19.67;;;;;;;0.64;100.00;100474.95;1772567;81;20913;-78
2020/12/19 02:41:53;;;;;;;53.17;19.27;;;;;;;0.69;100.00;100476.97;1802646;79;21103;-80
2020/12/19 02:44:21;;;;;;;54.13;20.17;;;;;;;0.69;100.00;100483.73;1802484;79;20929;-83
2020/12/19 02:46:48;;;;;;;54.10;19.42;;;;;;;0.68;100.00;100478.84;1802714;79;21464;-75
2020/12/19 02:49:17;;;;;;;54.03;19.87;;;;;;;0.68;100.00;100475.32;1802555;79;21375;-82
2020/12/19 02:51:45;;;;;;;60.05;20.32;;;;;;;0.66;100.00;100482.30;1802523;79;20930;-85
2020/12/19 02:54:13;;;;;;;50.85;19.98;;;;;;;0.68;100.00;100483.42;1802624;79;21519;-86
2020/12/19 02:56:40;;;;;;;58.83;20.68;;;;;;;0.66;100.00;100479.08;1802415;79;21027;-83
2020/12/19 02:59:07;;;;;;;61.00;23.35;;;;;;;0.67;100.00;100483.95;1802551;79;20969;-86
2020/12/19 03:01:35;;;;;;;49.05;19.07;;;;;;;0.70;100.00;100480.80;1802575;79;21142;-78
2020/12/19 03:04:03;;;;;;;59.63;22.13;;;;;;;0.72;100.00;100480.56;1773444;79;21115;-85
2020/12/19 03:06:35;;;;;;;57.15;19.67;;;;;;;0.74;100.00;100483.34;1802617;79;21523;-85
2020/12/19 03:09:03;;;;;;;59.00;21.27;;;;;;;0.74;100.00;100483.87;1802643;79;21551;-89
2020/12/19 03:11:31;;;;;;;55.15;21.57;;;;;;;0.74;100.00;100478.46;1802583;79;21543;-84
2020/12/19 03:13:59;;;;;;;50.03;19.75;;;;;;;0.74;100.00;100483.34;1802541;79;21212;-86
2020/12/19 03:16:27;;;;;;;56.28;21.23;;;;;;;0.73;100.00;100482.22;1802484;79;21086;-71
2020/12/19 03:18:54;;;;;;;54.30;19.95;;;;;;;0.77;100.00;100484.77;1802546;79;21075;-71
2020/12/19 03:21:23;;;;;;;55.38;20.15;;;;;;;0.79;100.00;100487.53;1802460;79;20992;-70
2020/12/19 03:23:51;;;;;;;55.17;21.02;;;;;;;0.81;100.00;100485.43;1802304;79;20981;-75
2020/12/19 03:26:19;;;;;;;59.80;22.73;;;;;;;0.81;100.00;100485.95;1802622;79;21608;-75
2020/12/19 03:28:47;;;;;;;61.92;22.35;;;;;;;0.81;100.00;100486.78;1802493;79;20909;-75
2020/12/19 03:31:14;;;;;;;59.20;21.57;;;;;;;0.83;100.00;100485.20;1802590;79;21464;-76
2020/12/19 03:33:42;;;;;;;60.90;21.65;;;;;;;0.85;100.00;100483.92;1802548;79;20981;-75
2020/12/19 03:36:09;;;;;;;57.90;22.15;;;;;;;0.88;100.00;100482.11;1802518;79;20890;-73
2020/12/19 03:38:37;;;;;;;58.17;21.30;;;;;;;0.91;100.00;100487.06;1795314;79;21536;-74
2020/12/19 03:41:05;;;;;;;65.57;22.02;;;;;;;0.93;100.00;100486.83;1792920;80;20914;-72
2020/12/19 03:43:33;;;;;;;58.13;21.73;;;;;;;0.95;100.00;100485.55;1792997;80;20973;-71
2020/12/19 03:46:01;;;;;;;59.25;22.22;;;;;;;0.96;100.00;100480.96;1792981;80;20985;-72
2020/12/19 03:48:28;;;;;;;69.03;24.98;;;;;;;0.95;100.00;100479.31;1792985;80;21033;-72
2020/12/19 03:50:55;;;;;;;66.92;24.27;;;;;;;0.94;100.00;100478.48;1771367;81;23360;-71
2020/12/19 03:53:23;;;;;;;66.33;23.67;;;;;;;0.95;100.00;100476.61;1771409;81;20965;-72
2020/12/19 03:55:51;;;;;;;58.92;21.77;;;;;;;0.95;100.00;100480.14;1771378;81;21138;-71
2020/12/19 03:58:19;;;;;;;71.60;23.87;;;;;;;0.94;100.00;100485.25;1771455;81;21077;-73
2020/12/19 04:00:46;;;;;;;70.00;24.23;;;;;;;0.94;100.00;100484.42;1768286;81;21183;-72
2020/12/19 04:03:14;;;;;;;71.53;24.80;;;;;;;0.96;100.00;100484.48;1769162;81;21456;-73
2020/12/19 04:05:42;;;;;;;63.60;22.98;;;;;;;0.99;100.00;100484.56;1769438;81;21183;-72
2020/12/19 04:08:11;;;;;;;57.15;21.65;;;;;;;1.01;100.00;100477.04;1769472;81;21545;-72
2020/12/19 04:10:39;;;;;;;67.90;23.75;;;;;;;0.98;100.00;100480.20;1769518;81;21057;-72
2020/12/19 04:13:07;;;;;;;62.93;22.40;;;;;;;0.97;100.00;100483.44;1769394;81;21072;-72
2020/12/19 04:15:35;;;;;;;56.75;22.15;;;;;;;0.98;100.00;100481.55;1769553;81;21175;-72
2020/12/19 04:18:03;;;;;;;60.48;21.93;;;;;;;1.02;100.00;100477.87;1769431;81;21989;-72
2020/12/19 04:20:31;;;;;;;58.92;21.50;;;;;;;1.02;100.00;100481.92;1769409;81;21496;-71
2020/12/19 04:22:59;;;;;;;63.98;22.45;;;;;;;0.99;100.00;100479.98;1769437;81;21061;-72
2020/12/19 04:25:27;;;;;;;56.15;20.48;;;;;;;1.00;100.00;100476.75;1769610;81;21484;-72
2020/12/19 04:27:54;;;;;;;58.80;21.60;;;;;;;1.01;100.00;100485.16;1769594;81;21257;-73
2020/12/19 04:30:23;;;;;;;62.08;22.22;;;;;;;0.97;100.00;100482.08;1769342;81;21136;-72
2020/12/19 04:32:50;;;;;;;66.65;22.85;;;;;;;0.99;100.00;100491.32;1769460;81;21168;-72
2020/12/19 04:35:19;;;;;;;61.00;22.22;;;;;;;0.96;100.00;100490.42;1769393;81;21187;-72
2020/12/19 04:37:46;;;;;;;56.85;20.75;;;;;;;0.95;100.00;100490.12;1764583;81;21050;-72
2020/12/19 04:40:14;;;;;;;68.05;22.40;;;;;;;0.94;100.00;100497.94;1751820;81;22795;-72
2020/12/19 04:42:42;;;;;;;60.10;21.37;;;;;;;0.94;100.00;100489.83;1751543;82;21038;-73
2020/12/19 04:45:10;;;;;;;62.65;23.55;;;;;;;0.94;100.00;100494.71;1728423;82;21053;-74
2020/12/19 04:47:37;;;;;;;55.63;19.75;;;;;;;0.96;100.00;100494.48;1751789;81;21497;-75
2020/12/19 04:50:05;;;;;;;56.30;21.35;;;;;;;0.97;100.00;100491.55;1751685;82;20963;-73
2020/12/19 04:52:32;;;;;;;66.50;22.40;;;;;;;0.99;100.00;100492.67;1751947;82;21856;-72
2020/12/19 04:55:00;;;;;;;56.05;21.75;;;;;;;1.01;100.00;100499.20;1751851;82;21985;-71
2020/12/19 04:57:27;;;;;;;68.02;22.32;;;;;;;0.97;100.00;100502.89;1751796;82;20943;-71
2020/12/19 04:59:55;;;;;;;62.75;22.55;;;;;;;0.96;100.00;100490.42;1751894;82;20938;-71
2020/12/19 05:02:24;;;;;;;58.13;21.55;;;;;;;0.98;100.00;100497.78;1751959;82;21108;-70
2020/12/19 05:04:52;;;;;;;60.52;23.07;;;;;;;0.98;100.00;100499.95;1751949;82;21442;-70
2020/12/19 05:07:22;;;;;;;64.25;23.12;;;;;;;0.98;100.00;100494.55;1747390;82;21026;-70
2020/12/19 05:09:49;;;;;;;66.42;22.35;;;;;;;0.99;100.00;100500.78;1751892;82;20903;-70
2020/12/19 05:12:17;;;;;;;67.25;24.32;;;;;;;0.99;100.00;100502.95;1751948;82;21917;-69
2020/12/19 05:14:45;;;;;;;61.80;21.68;;;;;;;1.01;100.00;100501.37;1751947;82;21061;-71
2020/12/19 05:17:12;;;;;;;60.38;22.60;;;;;;;1.02;100.00;100507.08;1751951;82;22180;-73
2020/12/19 05:19:40;;;;;;;65.22;23.55;;;;;;;1.02;100.00;100500.32;1751810;81;21011;-71
2020/12/19 05:22:09;;;;;;;68.35;24.00;;;;;;;1.03;100.00;100504.67;1756987;81;20943;-73
2020/12/19 05:24:36;;;;;;;59.30;20.97;;;;;;;1.03;100.00;100510.08;1714372;82;20915;-71
2020/12/19 05:27:05;;;;;;;66.33;23.40;;;;;;;1.04;100.00;100515.79;1714325;82;21090;-72
2020/12/19 05:29:34;;;;;;;63.55;22.05;;;;;;;1.04;100.00;100513.61;1739032;82;21159;-72
2020/12/19 05:32:02;;;;;;;60.52;21.97;;;;;;;1.04;100.00;100517.67;1739141;82;21856;-72
2020/12/19 05:34:29;;;;;;;60.88;21.68;;;;;;;1.05;100.00;100519.32;1739168;82;21026;-72
2020/12/19 05:36:58;;;;;;;70.67;22.10;;;;;;;1.05;100.00;100515.27;1739212;82;21058;-71
2020/12/19 05:39:25;;;;;;;63.90;21.97;;;;;;;1.08;100.00;100518.86;1718136;82;21227;-71
2020/12/19 05:41:53;;;;;;;54.60;21.93;;;;;;;1.08;100.00;100522.39;1713323;82;23685;-71
2020/12/19 05:44:22;;;;;;;55.48;20.15;;;;;;;1.08;100.00;100526.45;1713373;83;21045;-71
2020/12/19 05:46:49;;;;;;;51.08;19.42;;;;;;;1.05;100.00;100522.02;1713520;83;21064;-72
2020/12/19 05:49:18;;;;;;;52.78;17.55;;;;;;;1.05;100.00;100524.73;1713403;83;21076;-71
2020/12/19 05:51:45;;;;;;;56.58;19.92;;;;;;;1.06;100.00;100525.85;1713397;83;21073;-71
2020/12/19 05:54:14;;;;;;;49.33;19.02;;;;;;;1.05;100.00;100525.55;1713414;83;21873;-73
2020/12/19 05:56:50;;;;;;;45.80;18.57;;;;;;;1.02;100.00;100526.02;1714532;81;21123;-70
2020/12/19 05:59:19;;;;;;;51.73;20.37;;;;;;;1.06;100.00;100526.38;1741592;82;21187;-72
2020/12/19 06:01:48;;;;;;;47.10;18.75;;;;;;;1.08;100.00;100535.91;1744004;82;21121;-71
2020/12/19 06:04:17;;;;;;;51.75;19.10;;;;;;;1.08;100.00;100537.27;1748230;81;21114;-72
2020/12/19 06:06:47;;;;;;;54.20;19.52;;;;;;;1.08;100.00;100542.67;1747486;81;21191;-73
2020/12/19 06:09:15;;;;;;;46.90;19.02;;;;;;;1.09;100.00;100549.73;1744255;82;20975;-72
2020/12/19 06:11:54;;;;;;;48.75;20.32;;;;;;;1.12;100.00;100555.20;1744617;81;21039;-72
2020/12/19 06:14:22;;;;;;;53.55;19.55;;;;;;;1.13;100.00;100558.21;1745378;81;21153;-71
2020/12/19 06:16:54;;;;;;;56.60;22.32;;;;;;;1.13;100.00;100567.15;1744418;82;21633;-71
2020/12/19 06:19:25;;;;;;;58.35;23.47;;;;;;;1.13;100.00;100565.80;1743881;82;21397;-71
2020/12/19 06:21:56;;;;;;;77.65;34.55;;;;;;;1.14;100.00;100572.86;1745070;82;21582;-72
2020/12/19 06:24:45;;;;;;;78.60;32.38;;;;;;;1.18;100.00;100581.31;1745164;82;21004;-71
2020/12/19 06:27:28;;;;;;;85.28;34.15;;;;;;;1.17;100.00;100575.59;1744500;82;21107;-73
2020/12/19 06:29:55;;;;;;;70.12;29.15;;;;;;;1.18;100.00;100584.02;1742627;82;21176;-71
2020/12/19 06:32:28;;;;;;;53.85;21.90;;;;;;;1.19;100.00;100589.19;1726644;82;21712;-71
2020/12/19 06:35:08;;;;;;;41.60;18.92;;;;;;;1.21;100.00;100588.44;1743337;82;21072;-72
2020/12/19 06:37:43;;;;;;;46.80;18.50;;;;;;;1.21;100.00;100586.27;1743409;82;21263;-71
2020/12/19 06:40:18;;;;;;;46.05;20.57;;;;;;;1.19;100.00;100591.90;1726530;82;21056;-71
2020/12/19 06:42:49;;;;;;;52.95;22.07;;;;;;;1.19;100.00;100588.37;1743207;82;21076;-71
2020/12/19 06:45:29;;;;;;;45.38;21.05;;;;;;;1.18;100.00;100584.02;1743931;82;22270;-71
2020/12/19 06:47:57;;;;;;;48.30;21.60;;;;;;;1.20;100.00;100587.31;1743740;82;20961;-72
2020/12/19 06:50:25;;;;;;;55.88;21.62;;;;;;;1.18;100.00;100587.55;1744012;82;21524;-72
2020/12/19 06:52:59;;;;;;;45.73;20.37;;;;;;;1.15;100.00;100589.91;1743832;82;21555;-71
2020/12/19 06:55:29;;;;;;;63.65;24.35;;;;;;;1.12;100.00;100584.44;1743847;82;21072;-72
2020/12/19 06:57:58;;;;;;;57.27;23.22;;;;;;;1.11;100.00;100592.25;1712543;83;21371;-72
2020/12/19 07:00:31;;;;;;;51.83;20.95;;;;;;;1.13;100.00;100595.55;1743925;82;20921;-72
2020/12/19 07:02:59;;;;;;;;;;;;;;;1.14;100.00;100594.50;1729104;83;21078;-72
2020/12/19 07:05:35;;;;;;;46.42;20.95;;;;;;;1.15;100.00;100596.67;1726522;83;20231;-72
2020/12/19 07:08:21;;;;;;;51.98;21.00;;;;;;;1.14;100.00;100593.14;1726566;83;21153;-72
2020/12/19 07:10:50;;;;;;;58.23;22.45;;;;;;;1.14;100.00;100595.02;1726492;83;21365;-73
2020/12/19 07:13:18;;;;;;;55.78;21.80;;;;;;;1.12;100.00;100592.55;1726444;83;21126;-74
2020/12/19 07:15:50;;;;;;;59.67;23.00;;;;;;;1.12;100.00;100595.25;1701909;83;21062;-73
2020/12/19 07:18:32;;;;;;;62.30;24.23;;;;;;;1.16;100.00;100593.70;1726599;83;21093;-73
2020/12/19 07:21:07;;;;;;;52.83;22.20;;;;;;;1.20;100.00;100600.31;1726793;83;21212;-72
2020/12/19 07:23:38;;;;;;;56.42;21.70;;;;;;;1.21;100.00;100597.08;1726503;83;21470;-72
2020/12/19 07:26:09;;;;;;;52.13;20.95;;;;;;;1.20;100.00;100598.96;1726337;83;21114;-72
2020/12/19 07:28:37;;;;;;;47.38;21.00;;;;;;;1.22;100.00;100596.85;1726504;83;20983;-72
2020/12/19 07:31:05;;;;;;;49.80;21.33;;;;;;;1.23;100.00;100596.33;1726442;83;21162;-72
2020/12/19 07:33:33;;;;;;;54.48;22.75;;;;;;;1.24;100.00;100597.45;1726502;82;20975;-73
2020/12/19 07:36:01;;;;;;;54.45;22.70;;;;;;;1.26;100.00;100599.40;1726480;82;21805;-72
2020/12/19 07:38:30;;;;;;;46.50;21.33;;;;;;;1.30;100.00;100606.00;1731146;81;21182;-72
2020/12/19 07:40:57;;;;;;;52.48;23.30;;;;;;;1.33;100.00;100597.95;1758204;81;21061;-72
2020/12/19 07:43:25;;;;;;;54.30;21.45;;;;;;;1.37;100.00;100601.85;1758189;81;21989;-72
2020/12/19 07:45:57;;;;;;;46.23;19.52;;;;;;;1.39;100.00;100601.09;1758237;81;21166;-72
2020/12/19 07:48:25;;;;;;;37.90;17.87;;;;;;;1.44;100.00;100603.11;1758193;81;21386;-72
2020/12/19 07:50:52;;;;;;;47.00;20.70;;;;;;;1.44;99.97;100604.47;1758065;81;20961;-72
2020/12/19 07:53:20;;;;;;;44.65;20.00;;;;;;;1.48;99.93;100607.02;1758125;81;21064;-72
2020/12/19 07:55:51;;;;;;;47.93;20.92;;;;;;;1.49;99.93;100605.43;1758133;81;21073;-72
2020/12/19 07:58:20;;;;;;;39.18;19.17;;;;;;;1.50;99.82;100603.02;1758389;81;21473;-71
2020/12/19 08:00:48;;;;;;;38.75;17.35;;;;;;;1.51;99.72;100601.97;1758164;81;21382;-72
2020/12/19 08:03:16;;;;;;;35.15;16.27;;;;;;;1.52;99.51;100603.61;1758069;81;21527;-72
2020/12/19 08:05:46;;;;;;;39.05;17.10;;;;;;;1.49;99.23;100605.43;1758121;81;20978;-72
2020/12/19 08:08:14;;;;;;;33.60;15.68;;;;;;;1.50;99.29;100610.31;1709633;81;21478;-73
2020/12/19 08:10:42;;;;;;;35.68;16.42;;;;;;;1.50;99.05;100610.31;1758215;81;21556;-73
2020/12/19 08:13:11;;;;;;;39.58;16.20;;;;;;;1.44;98.68;100607.17;1758149;81;21425;-73
2020/12/19 08:15:38;;;;;;;32.10;15.55;;;;;;;1.41;98.58;100604.92;1758027;81;20966;-73
2020/12/19 08:18:09;;;;;;;42.62;18.50;;;;;;;1.39;98.69;100604.33;1758139;81;21073;-73
2020/12/19 08:20:38;;;;;;;37.88;17.87;;;;;;;1.42;98.87;100607.41;1758152;81;21052;-72
2020/12/19 08:23:07;;;;;;;38.88;17.05;;;;;;;1.50;99.07;100603.55;1758163;81;21076;-73
2020/12/19 08:25:35;;;;;;;41.35;18.82;;;;;;;1.54;99.07;100601.50;1758122;81;21398;-72
2020/12/19 08:28:04;;;;;;;40.58;17.50;;;;;;;1.58;99.03;100593.22;1758032;81;21136;-72
2020/12/19 08:30:33;;;;;;;37.58;17.50;;;;;;;1.61;98.87;100602.76;1758081;81;20957;-72
2020/12/19 08:33:06;;;;;;;38.13;16.40;;;;;;;1.66;98.90;100597.48;1758201;81;21179;-73
2020/12/19 08:35:41;;;;;;;38.10;17.95;;;;;;;1.70;98.82;100590.55;1758115;81;21556;-73
2020/12/19 08:38:21;;;;;;;39.88;15.90;;;;;;;1.74;98.78;100591.70;1757695;81;22209;-72
2020/12/19 08:40:51;;;;;;;36.60;17.37;;;;;;;1.78;98.66;100590.17;1751828;81;21111;-72
2020/12/19 08:43:20;;;;;;;34.70;14.93;;;;;;;1.83;98.64;100593.02;1789101;80;21029;-72
2020/12/19 08:45:49;;;;;;;30.92;15.45;;;;;;;1.86;98.50;100596.61;1789282;80;20930;-72
2020/12/19 08:48:23;;;;;;;35.05;15.72;;;;;;;1.89;98.44;100590.73;1789456;80;21507;-72
2020/12/19 08:50:54;;;;;;;34.27;15.72;;;;;;;1.88;98.21;100595.84;1788390;80;21360;-72
2020/12/19 08:53:23;;;;;;;37.80;17.05;;;;;;;1.88;98.04;100592.31;1789257;79;21164;-73
2020/12/19 08:55:52;;;;;;;35.40;15.70;;;;;;;1.87;98.08;100596.08;1789321;80;21606;-73
2020/12/19 08:58:28;;;;;;;36.98;17.25;;;;;;;1.89;98.14;100593.97;1789273;80;20914;-72
2020/12/19 09:01:02;;;;;;;35.63;17.25;;;;;;;1.91;98.06;100594.03;1789410;80;20930;-72
2020/12/19 09:03:32;;;;;;;36.30;16.73;;;;;;;1.90;97.90;100588.31;1761276;80;21204;-72
2020/12/19 09:06:11;;;;;;;41.15;18.87;;;;;;;1.90;97.72;100581.55;1789289;80;20954;-72
2020/12/19 09:08:45;;;;;;;41.98;19.45;;;;;;;1.91;97.81;100581.84;1789364;80;20886;-72
2020/12/19 09:11:28;;;;;;;46.15;18.67;;;;;;;1.98;98.08;100579.85;1789174;80;21139;-72
2020/12/19 09:14:12;;;;;;;44.40;18.42;;;;;;;1.99;97.87;100572.02;1789551;80;21064;-72
2020/12/19 09:16:50;;;;;;;44.27;18.57;;;;;;;1.93;97.34;100576.20;1789415;80;22013;-71
2020/12/19 09:19:18;;;;;;;40.88;18.00;;;;;;;1.87;97.44;100573.89;1789259;80;21538;-72
2020/12/19 09:21:57;;;;;;;48.83;19.67;;;;;;;1.85;97.60;100571.95;1787012;80;20958;-71
2020/12/19 09:24:26;;;;;;;49.50;19.62;;;;;;;1.85;97.78;100571.95;1748649;80;21685;-71
2020/12/19 09:26:56;;;;;;;44.42;19.85;;;;;;;1.89;97.95;100569.06;1789086;80;36192;-72
2020/12/19 09:29:24;;;;;;;53.58;21.57;;;;;;;1.95;98.09;100565.42;1789228;80;23604;-72
2020/12/19 09:31:51;;;;;;;48.87;20.02;;;;;;;2.01;98.24;100568.25;1789231;80;21544;-74
2020/12/19 09:34:19;;;;;;;41.02;17.60;;;;;;;2.05;98.33;100574.85;1789296;80;21492;-72
2020/12/19 09:36:47;;;;;;;39.83;17.57;;;;;;;2.06;98.10;100576.50;1789232;80;21065;-75
2020/12/19 09:39:15;;;;;;;44.48;18.67;;;;;;;2.04;97.97;100571.84;1787711;80;21131;-75
2020/12/19 09:41:43;;;;;;;49.60;18.48;;;;;;;2.01;97.91;100564.20;1780032;80;21632;-74
2020/12/19 09:44:11;;;;;;;44.38;18.48;;;;;;;2.04;98.14;100569.14;1782581;80;20989;-73
2020/12/19 09:46:38;;;;;;;39.35;16.67;;;;;;;2.08;98.18;100574.38;1780137;79;21067;-74
2020/12/19 09:49:06;;;;;;;38.92;17.27;;;;;;;2.09;98.12;100566.55;1779548;80;20917;-74
2020/12/19 09:51:33;;;;;;;37.60;17.45;;;;;;;2.09;97.86;100571.44;1771355;81;21134;-75
2020/12/19 09:54:00;;;;;;;35.25;16.95;;;;;;;2.12;97.83;100565.55;1786501;80;21200;-75
2020/12/19 09:56:27;;;;;;;37.05;16.62;;;;;;;2.16;97.84;100563.20;1772652;80;20960;-75
2020/12/19 09:58:55;;;;;;;33.75;15.08;;;;;;;2.22;97.88;100560.38;1775844;80;21009;-87
2020/12/19 10:01:22;;;;;;;34.05;16.45;;;;;;;2.26;97.46;100564.79;1788641;80;21167;-75
2020/12/19 10:03:50;;;;;;;35.25;16.05;;;;;;;2.23;96.86;100562.55;1788113;80;21500;-74
2020/12/19 10:06:17;;;;;;;40.52;17.25;;;;;;;2.21;97.01;100561.96;1789141;80;21479;-73
2020/12/19 10:08:45;;;;;;;41.85;17.37;;;;;;;2.20;96.97;100563.02;1789096;80;21666;-74
2020/12/19 10:11:12;;;;;;;45.85;17.25;;;;;;;2.19;96.85;100561.38;1789236;80;21084;-78
2020/12/19 10:13:40;;;;;;;42.08;17.85;;;;;;;2.16;96.72;100559.13;1789427;80;21480;-76
2020/12/19 10:16:07;;;;;;;43.30;17.95;;;;;;;2.13;96.69;100556.89;1789215;80;20973;-75
2020/12/19 10:18:35;;;;;;;44.88;19.27;;;;;;;2.14;96.87;100555.84;1789166;80;21428;-76
2020/12/19 10:21:07;;;;;;;48.63;19.42;;;;;;;2.14;96.97;100558.02;1789158;80;20997;-71
2020/12/19 10:23:35;;;;;;;;;;;;;;;2.15;96.90;100555.60;1791908;80;21124;-75
2020/12/19 10:26:02;;;;;;;38.63;16.25;;;;;;;2.14;96.73;100553.13;1772719;80;20159;-83
2020/12/19 10:28:30;;;;;;;43.98;17.52;;;;;;;2.09;96.83;100553.83;1782172;80;21032;-78
2020/12/19 10:30:58;;;;;;;61.68;21.42;;;;;;;2.09;97.00;100557.08;1765013;80;21394;-82
2020/12/19 10:33:26;;;;;;;66.55;26.90;;;;;;;2.08;96.94;100554.07;1787903;80;21499;-70
2020/12/19 10:35:54;;;;;;;50.70;20.35;;;;;;;2.03;96.96;100558.02;1789340;80;20942;-74
2020/12/19 10:38:23;;;;;;;53.20;21.00;;;;;;;2.03;97.18;100564.25;1789404;80;21016;-78
2020/12/19 10:40:53;;;;;;;60.40;22.20;;;;;;;2.06;97.46;100557.55;1780199;80;21139;-77
2020/12/19 10:43:21;;;;;;;50.15;19.60;;;;;;;2.06;97.52;100556.19;1770865;81;21226;-84
2020/12/19 10:45:48;;;;;;;65.42;21.97;;;;;;;2.10;97.69;100554.12;1740310;82;21064;-72
2020/12/19 10:48:16;;;;;;;65.12;24.65;;;;;;;2.11;97.70;100554.95;1784128;80;21054;-72
2020/12/19 10:50:44;;;;;;;63.95;23.55;;;;;;;2.11;97.79;100557.66;1740585;81;21020;-72
2020/12/19 10:53:12;;;;;;;66.28;22.82;;;;;;;2.11;97.80;100546.83;1786303;80;21148;-75
2020/12/19 10:55:40;;;;;;;62.88;22.05;;;;;;;2.07;97.58;100549.18;1786471;80;21386;-81
2020/12/19 10:58:08;;;;;;;60.17;22.32;;;;;;;2.03;97.57;100543.12;1786191;79;20962;-75
2020/12/19 11:00:36;;;;;;;65.55;22.52;;;;;;;2.05;97.80;100543.70;1786081;80;20958;-82
2020/12/19 11:03:03;;;;;;;68.07;21.82;;;;;;;2.04;97.83;100548.83;1786539;80;20993;-84
2020/12/19 11:05:31;;;;;;;70.57;23.27;;;;;;;2.01;97.83;100544.70;1786231;80;21195;-84
2020/12/19 11:07:59;;;;;;;67.45;22.58;;;;;;;2.01;98.01;100543.88;1780454;80;21618;-83
2020/12/19 11:10:27;;;;;;;62.70;23.22;;;;;;;2.04;98.11;100537.99;1789853;79;20936;-75
2020/12/19 11:12:54;;;;;;;66.65;23.73;;;;;;;2.07;98.24;100548.36;1782809;79;21504;-77
2020/12/19 11:15:22;;;;;;;76.90;26.33;;;;;;;2.10;98.23;100552.77;1754415;79;21355;-73
2020/12/19 11:17:50;;;;;;;80.85;31.20;;;;;;;2.11;98.32;100547.66;1788637;79;21138;-78
2020/12/19 11:20:19;;;;;;;84.52;29.40;;;;;;;2.12;98.37;100549.83;1745052;81;20953;-82